Terminal Aerodrome Forecast
Issued by NWS Tulsa, OK

Home | Current Version | Previous Version | Text Only | Print | Product List | Glossary On
Versions: 1 2 3 4 5 6 7 8 9 10 11 12 13 14
634
FTUS44 KTSA 271120
TAFFSM
TAF
KFSM 271120Z 2712/2812 07007KT P6SM SKC
     FM271400 10010KT P6SM OVC015
     FM280200 14008KT P6SM VCSH BKN025 PROB30 2802/2808 -TSRA
      BKN030CB
     FM280800 21008KT 4SM BR BKN015 WS020/20040KT=

USA.gov is the U.S. government's official web portal to all federal, state and local government web resources and services.